sensor_id;sensor_type;location;lat;lon;timestamp;P1;durP1;ratioP1;P2;durP2;ratioP2
70320;SDS011;61127;55.826;37.046;2022-10-16T00:00:44;24.95;;;10.82;;
70320;SDS011;61127;55.826;37.046;2022-10-16T00:03:10;24.20;;;10.87;;
70320;SDS011;61127;55.826;37.046;2022-10-16T00:05:40;21.27;;;10.23;;
70320;SDS011;61127;55.826;37.046;2022-10-16T00:08:07;19.38;;;9.25;;
70320;SDS011;61127;55.826;37.046;2022-10-16T00:10:33;23.65;;;9.05;;
70320;SDS011;61127;55.826;37.046;2022-10-16T00:12:58;22.67;;;10.43;;
70320;SDS011;61127;55.826;37.046;2022-10-16T00:15:25;19.02;;;10.13;;
70320;SDS011;61127;55.826;37.046;2022-10-16T00:17:51;20.30;;;10.00;;
70320;SDS011;61127;55.826;37.046;2022-10-16T00:20:17;23.73;;;9.90;;
70320;SDS011;61127;55.826;37.046;2022-10-16T00:23:02;22.58;;;10.05;;
70320;SDS011;61127;55.826;37.046;2022-10-16T00:25:29;28.73;;;10.48;;
70320;SDS011;61127;55.826;37.046;2022-10-16T00:27:58;23.13;;;9.50;;
70320;SDS011;61127;55.826;37.046;2022-10-16T00:30:23;20.45;;;9.63;;
70320;SDS011;61127;55.826;37.046;2022-10-16T00:32:49;24.27;;;9.97;;
70320;SDS011;61127;55.826;37.046;2022-10-16T00:35:15;18.05;;;8.50;;
70320;SDS011;61127;55.826;37.046;2022-10-16T00:37:40;20.63;;;9.03;;
70320;SDS011;61127;55.826;37.046;2022-10-16T00:40:06;19.17;;;8.75;;
70320;SDS011;61127;55.826;37.046;2022-10-16T00:42:32;19.60;;;8.53;;
70320;SDS011;61127;55.826;37.046;2022-10-16T00:44:59;19.07;;;8.67;;
70320;SDS011;61127;55.826;37.046;2022-10-16T00:49:51;16.30;;;8.10;;
70320;SDS011;61127;55.826;37.046;2022-10-16T00:52:18;18.77;;;8.40;;
70320;SDS011;61127;55.826;37.046;2022-10-16T00:54:52;19.17;;;9.40;;
70320;SDS011;61127;55.826;37.046;2022-10-16T00:57:18;18.38;;;8.50;;
70320;SDS011;61127;55.826;37.046;2022-10-16T00:59:45;17.15;;;8.50;;
70320;SDS011;61127;55.826;37.046;2022-10-16T01:02:12;24.00;;;8.82;;
70320;SDS011;61127;55.826;37.046;2022-10-16T01:04:41;17.33;;;8.55;;
70320;SDS011;61127;55.826;37.046;2022-10-16T01:17:15;16.73;;;7.43;;
70320;SDS011;61127;55.826;37.046;2022-10-16T01:20:00;16.05;;;8.25;;
70320;SDS011;61127;55.826;37.046;2022-10-16T01:25:36;15.68;;;8.20;;
70320;SDS011;61127;55.826;37.046;2022-10-16T01:28:03;16.30;;;7.87;;
70320;SDS011;61127;55.826;37.046;2022-10-16T01:30:31;18.50;;;7.18;;
70320;SDS011;61127;55.826;37.046;2022-10-16T01:33:00;16.27;;;8.00;;
70320;SDS011;61127;55.826;37.046;2022-10-16T01:35:29;19.17;;;8.00;;
70320;SDS011;61127;55.826;37.046;2022-10-16T01:38:03;15.73;;;7.45;;
70320;SDS011;61127;55.826;37.046;2022-10-16T01:40:30;18.17;;;7.60;;
70320;SDS011;61127;55.826;37.046;2022-10-16T01:43:01;14.40;;;7.20;;
70320;SDS011;61127;55.826;37.046;2022-10-16T01:45:29;16.35;;;7.20;;
70320;SDS011;61127;55.826;37.046;2022-10-16T01:47:56;14.85;;;7.20;;
70320;SDS011;61127;55.826;37.046;2022-10-16T01:50:21;16.00;;;7.97;;
70320;SDS011;61127;55.826;37.046;2022-10-16T01:52:48;19.23;;;7.72;;
70320;SDS011;61127;55.826;37.046;2022-10-16T01:55:25;17.08;;;8.23;;
70320;SDS011;61127;55.826;37.046;2022-10-16T01:57:52;15.70;;;7.55;;
70320;SDS011;61127;55.826;37.046;2022-10-16T02:00:19;17.37;;;8.17;;
70320;SDS011;61127;55.826;37.046;2022-10-16T02:02:47;17.65;;;7.90;;
70320;SDS011;61127;55.826;37.046;2022-10-16T02:07:47;18.95;;;7.70;;
70320;SDS011;61127;55.826;37.046;2022-10-16T02:10:12;19.80;;;7.95;;
70320;SDS011;61127;55.826;37.046;2022-10-16T02:12:39;17.43;;;7.47;;
70320;SDS011;61127;55.826;37.046;2022-10-16T02:15:07;14.65;;;7.78;;
70320;SDS011;61127;55.826;37.046;2022-10-16T02:17:33;17.05;;;7.78;;
70320;SDS011;61127;55.826;37.046;2022-10-16T02:19:58;18.07;;;7.97;;
70320;SDS011;61127;55.826;37.046;2022-10-16T02:22:26;17.80;;;8.35;;
70320;SDS011;61127;55.826;37.046;2022-10-16T02:29:48;19.08;;;7.35;;
70320;SDS011;61127;55.826;37.046;2022-10-16T02:32:16;17.30;;;7.72;;
70320;SDS011;61127;55.826;37.046;2022-10-16T02:34:44;14.80;;;7.00;;
70320;SDS011;61127;55.826;37.046;2022-10-16T02:37:11;19.02;;;7.32;;
70320;SDS011;61127;55.826;37.046;2022-10-16T02:39:36;17.27;;;7.40;;
70320;SDS011;61127;55.826;37.046;2022-10-16T02:42:03;16.85;;;7.05;;
70320;SDS011;61127;55.826;37.046;2022-10-16T02:44:30;18.43;;;7.53;;
70320;SDS011;61127;55.826;37.046;2022-10-16T02:46:57;14.93;;;7.65;;
70320;SDS011;61127;55.826;37.046;2022-10-16T02:49:22;19.98;;;7.93;;
70320;SDS011;61127;55.826;37.046;2022-10-16T02:51:48;14.73;;;7.37;;
70320;SDS011;61127;55.826;37.046;2022-10-16T02:54:18;15.50;;;7.57;;
70320;SDS011;61127;55.826;37.046;2022-10-16T02:56:43;16.77;;;7.25;;
70320;SDS011;61127;55.826;37.046;2022-10-16T02:59:09;16.27;;;7.20;;
70320;SDS011;61127;55.826;37.046;2022-10-16T03:01:35;17.17;;;6.93;;
70320;SDS011;61127;55.826;37.046;2022-10-16T03:04:01;16.23;;;7.82;;
70320;SDS011;61127;55.826;37.046;2022-10-16T03:06:26;17.35;;;7.95;;
70320;SDS011;61127;55.826;37.046;2022-10-16T03:08:52;15.40;;;7.30;;
70320;SDS011;61127;55.826;37.046;2022-10-16T03:11:17;15.63;;;7.30;;
70320;SDS011;61127;55.826;37.046;2022-10-16T03:13:44;17.00;;;7.70;;
70320;SDS011;61127;55.826;37.046;2022-10-16T03:16:09;16.48;;;7.35;;
70320;SDS011;61127;55.826;37.046;2022-10-16T03:18:35;16.10;;;7.55;;
70320;SDS011;61127;55.826;37.046;2022-10-16T03:21:04;12.97;;;6.90;;
70320;SDS011;61127;55.826;37.046;2022-10-16T03:23:29;15.13;;;6.72;;
70320;SDS011;61127;55.826;37.046;2022-10-16T03:25:56;14.63;;;7.67;;
70320;SDS011;61127;55.826;37.046;2022-10-16T03:28:22;16.15;;;7.88;;
70320;SDS011;61127;55.826;37.046;2022-10-16T03:30:48;15.07;;;7.43;;
70320;SDS011;61127;55.826;37.046;2022-10-16T03:33:13;13.37;;;6.60;;
70320;SDS011;61127;55.826;37.046;2022-10-16T03:35:39;16.77;;;7.80;;
70320;SDS011;61127;55.826;37.046;2022-10-16T03:38:04;18.33;;;7.50;;
70320;SDS011;61127;55.826;37.046;2022-10-16T03:40:30;13.77;;;6.43;;
70320;SDS011;61127;55.826;37.046;2022-10-16T03:42:57;17.33;;;7.50;;
70320;SDS011;61127;55.826;37.046;2022-10-16T03:45:26;17.48;;;7.28;;
70320;SDS011;61127;55.826;37.046;2022-10-16T03:47:52;17.13;;;7.18;;
70320;SDS011;61127;55.826;37.046;2022-10-16T03:50:18;14.93;;;7.18;;
70320;SDS011;61127;55.826;37.046;2022-10-16T03:52:44;16.13;;;6.87;;
70320;SDS011;61127;55.826;37.046;2022-10-16T03:55:11;15.57;;;7.00;;
70320;SDS011;61127;55.826;37.046;2022-10-16T03:57:37;17.50;;;7.05;;
70320;SDS011;61127;55.826;37.046;2022-10-16T04:00:04;12.70;;;6.43;;
70320;SDS011;61127;55.826;37.046;2022-10-16T04:02:37;16.50;;;7.47;;
70320;SDS011;61127;55.826;37.046;2022-10-16T04:05:04;14.40;;;6.70;;
70320;SDS011;61127;55.826;37.046;2022-10-16T04:07:30;14.32;;;6.28;;
70320;SDS011;61127;55.826;37.046;2022-10-16T04:09:55;14.33;;;7.13;;
70320;SDS011;61127;55.826;37.046;2022-10-16T04:12:22;14.70;;;6.45;;
70320;SDS011;61127;55.826;37.046;2022-10-16T04:17:17;17.75;;;8.13;;
70320;SDS011;61127;55.826;37.046;2022-10-16T04:19:43;15.77;;;6.97;;
70320;SDS011;61127;55.826;37.046;2022-10-16T04:22:09;13.23;;;6.67;;
70320;SDS011;61127;55.826;37.046;2022-10-16T04:24:34;15.55;;;7.53;;
70320;SDS011;61127;55.826;37.046;2022-10-16T04:27:00;13.53;;;6.70;;
70320;SDS011;61127;55.826;37.046;2022-10-16T04:29:26;13.18;;;6.75;;
70320;SDS011;61127;55.826;37.046;2022-10-16T04:31:51;14.97;;;7.03;;
70320;SDS011;61127;55.826;37.046;2022-10-16T04:34:19;19.45;;;7.13;;
70320;SDS011;61127;55.826;37.046;2022-10-16T04:36:46;15.20;;;7.22;;
70320;SDS011;61127;55.826;37.046;2022-10-16T04:39:12;15.38;;;6.80;;
70320;SDS011;61127;55.826;37.046;2022-10-16T04:41:37;13.50;;;7.15;;
70320;SDS011;61127;55.826;37.046;2022-10-16T04:44:07;15.37;;;6.70;;
70320;SDS011;61127;55.826;37.046;2022-10-16T04:46:33;12.18;;;6.47;;
70320;SDS011;61127;55.826;37.046;2022-10-16T04:48:59;19.85;;;7.53;;
70320;SDS011;61127;55.826;37.046;2022-10-16T04:51:25;15.07;;;7.18;;
70320;SDS011;61127;55.826;37.046;2022-10-16T04:53:51;17.73;;;7.53;;
70320;SDS011;61127;55.826;37.046;2022-10-16T04:56:17;16.23;;;7.67;;
70320;SDS011;61127;55.826;37.046;2022-10-16T04:58:42;14.60;;;7.78;;
70320;SDS011;61127;55.826;37.046;2022-10-16T05:01:08;17.20;;;7.00;;
70320;SDS011;61127;55.826;37.046;2022-10-16T05:03:34;19.30;;;7.45;;
70320;SDS011;61127;55.826;37.046;2022-10-16T05:05:59;14.20;;;7.33;;
70320;SDS011;61127;55.826;37.046;2022-10-16T05:08:26;17.77;;;8.05;;
70320;SDS011;61127;55.826;37.046;2022-10-16T05:10:52;17.40;;;8.07;;
70320;SDS011;61127;55.826;37.046;2022-10-16T05:13:19;15.35;;;7.40;;
70320;SDS011;61127;55.826;37.046;2022-10-16T05:15:48;17.67;;;7.57;;
70320;SDS011;61127;55.826;37.046;2022-10-16T05:18:15;15.38;;;7.57;;
70320;SDS011;61127;55.826;37.046;2022-10-16T05:20:42;16.05;;;7.50;;
70320;SDS011;61127;55.826;37.046;2022-10-16T05:23:09;17.10;;;7.95;;
70320;SDS011;61127;55.826;37.046;2022-10-16T05:25:40;16.85;;;7.20;;
70320;SDS011;61127;55.826;37.046;2022-10-16T05:28:05;15.38;;;7.57;;
70320;SDS011;61127;55.826;37.046;2022-10-16T05:30:31;13.48;;;7.05;;
70320;SDS011;61127;55.826;37.046;2022-10-16T05:32:57;18.03;;;8.03;;
70320;SDS011;61127;55.826;37.046;2022-10-16T05:35:23;20.17;;;7.88;;
70320;SDS011;61127;55.826;37.046;2022-10-16T05:37:48;16.85;;;7.25;;
70320;SDS011;61127;55.826;37.046;2022-10-16T05:40:14;14.10;;;6.97;;
70320;SDS011;61127;55.826;37.046;2022-10-16T05:42:41;18.50;;;7.18;;
70320;SDS011;61127;55.826;37.046;2022-10-16T05:45:09;17.70;;;7.77;;
70320;SDS011;61127;55.826;37.046;2022-10-16T05:47:36;17.60;;;7.68;;
70320;SDS011;61127;55.826;37.046;2022-10-16T05:50:02;17.65;;;7.20;;
70320;SDS011;61127;55.826;37.046;2022-10-16T05:52:29;14.20;;;7.00;;
70320;SDS011;61127;55.826;37.046;2022-10-16T05:54:55;15.57;;;7.30;;
70320;SDS011;61127;55.826;37.046;2022-10-16T05:57:21;16.20;;;7.32;;
70320;SDS011;61127;55.826;37.046;2022-10-16T05:59:47;13.70;;;7.40;;
70320;SDS011;61127;55.826;37.046;2022-10-16T06:02:13;14.10;;;6.85;;
70320;SDS011;61127;55.826;37.046;2022-10-16T06:04:40;13.52;;;7.03;;
70320;SDS011;61127;55.826;37.046;2022-10-16T06:07:06;13.25;;;6.50;;
70320;SDS011;61127;55.826;37.046;2022-10-16T06:09:32;13.30;;;5.65;;
70320;SDS011;61127;55.826;37.046;2022-10-16T06:11:58;15.00;;;6.00;;
70320;SDS011;61127;55.826;37.046;2022-10-16T06:14:24;13.90;;;6.40;;
70320;SDS011;61127;55.826;37.046;2022-10-16T06:16:50;14.30;;;6.30;;
70320;SDS011;61127;55.826;37.046;2022-10-16T06:19:16;15.32;;;6.35;;
70320;SDS011;61127;55.826;37.046;2022-10-16T06:21:43;13.13;;;6.07;;
70320;SDS011;61127;55.826;37.046;2022-10-16T06:24:09;12.80;;;6.28;;
70320;SDS011;61127;55.826;37.046;2022-10-16T06:26:35;11.05;;;5.10;;
70320;SDS011;61127;55.826;37.046;2022-10-16T06:29:01;12.40;;;5.37;;
70320;SDS011;61127;55.826;37.046;2022-10-16T06:31:27;9.88;;;5.05;;
70320;SDS011;61127;55.826;37.046;2022-10-16T06:33:56;9.20;;;4.63;;
70320;SDS011;61127;55.826;37.046;2022-10-16T06:36:22;9.95;;;4.97;;
70320;SDS011;61127;55.826;37.046;2022-10-16T06:38:48;11.93;;;5.35;;
70320;SDS011;61127;55.826;37.046;2022-10-16T06:41:17;10.18;;;4.53;;
70320;SDS011;61127;55.826;37.046;2022-10-16T06:43:43;12.07;;;5.10;;
70320;SDS011;61127;55.826;37.046;2022-10-16T06:46:11;11.93;;;4.50;;
70320;SDS011;61127;55.826;37.046;2022-10-16T06:48:37;11.45;;;4.75;;
70320;SDS011;61127;55.826;37.046;2022-10-16T06:53:29;11.13;;;4.28;;
70320;SDS011;61127;55.826;37.046;2022-10-16T06:55:55;8.73;;;4.10;;
70320;SDS011;61127;55.826;37.046;2022-10-16T06:58:21;9.00;;;4.15;;
70320;SDS011;61127;55.826;37.046;2022-10-16T07:00:47;13.63;;;4.55;;
70320;SDS011;61127;55.826;37.046;2022-10-16T07:03:13;9.93;;;3.67;;
70320;SDS011;61127;55.826;37.046;2022-10-16T07:05:41;8.60;;;4.13;;
70320;SDS011;61127;55.826;37.046;2022-10-16T07:08:07;10.35;;;3.67;;
70320;SDS011;61127;55.826;37.046;2022-10-16T07:10:38;11.00;;;4.05;;
70320;SDS011;61127;55.826;37.046;2022-10-16T07:13:04;9.27;;;3.80;;
70320;SDS011;61127;55.826;37.046;2022-10-16T07:15:30;9.50;;;4.00;;
70320;SDS011;61127;55.826;37.046;2022-10-16T07:17:56;12.75;;;4.32;;
70320;SDS011;61127;55.826;37.046;2022-10-16T07:20:22;10.77;;;4.40;;
70320;SDS011;61127;55.826;37.046;2022-10-16T07:22:47;13.47;;;4.40;;
70320;SDS011;61127;55.826;37.046;2022-10-16T07:25:14;10.13;;;4.30;;
70320;SDS011;61127;55.826;37.046;2022-10-16T07:27:40;10.00;;;4.22;;
70320;SDS011;61127;55.826;37.046;2022-10-16T07:30:06;13.93;;;4.22;;
70320;SDS011;61127;55.826;37.046;2022-10-16T07:32:31;9.43;;;3.88;;
70320;SDS011;61127;55.826;37.046;2022-10-16T07:34:59;9.68;;;4.10;;
70320;SDS011;61127;55.826;37.046;2022-10-16T07:37:24;9.20;;;3.58;;
70320;SDS011;61127;55.826;37.046;2022-10-16T07:39:50;9.35;;;3.97;;
70320;SDS011;61127;55.826;37.046;2022-10-16T07:42:15;10.80;;;3.90;;
70320;SDS011;61127;55.826;37.046;2022-10-16T07:44:42;9.30;;;3.90;;
70320;SDS011;61127;55.826;37.046;2022-10-16T07:47:08;11.32;;;3.78;;
70320;SDS011;61127;55.826;37.046;2022-10-16T07:49:33;7.80;;;3.58;;
70320;SDS011;61127;55.826;37.046;2022-10-16T07:51:59;9.30;;;3.80;;
70320;SDS011;61127;55.826;37.046;2022-10-16T07:54:25;10.13;;;4.30;;
70320;SDS011;61127;55.826;37.046;2022-10-16T07:56:50;10.90;;;4.20;;
70320;SDS011;61127;55.826;37.046;2022-10-16T07:59:16;10.20;;;4.18;;
70320;SDS011;61127;55.826;37.046;2022-10-16T08:01:42;8.50;;;3.80;;
70320;SDS011;61127;55.826;37.046;2022-10-16T08:04:08;8.05;;;3.25;;
70320;SDS011;61127;55.826;37.046;2022-10-16T08:06:35;8.60;;;3.42;;
70320;SDS011;61127;55.826;37.046;2022-10-16T08:09:01;7.28;;;3.47;;
70320;SDS011;61127;55.826;37.046;2022-10-16T08:11:27;8.55;;;3.25;;
70320;SDS011;61127;55.826;37.046;2022-10-16T08:13:54;8.20;;;3.42;;
70320;SDS011;61127;55.826;37.046;2022-10-16T08:16:20;8.13;;;3.70;;
70320;SDS011;61127;55.826;37.046;2022-10-16T08:18:46;7.75;;;3.70;;
70320;SDS011;61127;55.826;37.046;2022-10-16T08:21:13;10.75;;;3.30;;
70320;SDS011;61127;55.826;37.046;2022-10-16T08:23:39;5.47;;;2.85;;
70320;SDS011;61127;55.826;37.046;2022-10-16T08:26:05;8.07;;;3.28;;
70320;SDS011;61127;55.826;37.046;2022-10-16T08:28:31;7.47;;;3.30;;
70320;SDS011;61127;55.826;37.046;2022-10-16T08:31:04;7.35;;;3.40;;
70320;SDS011;61127;55.826;37.046;2022-10-16T08:33:30;10.98;;;3.40;;
70320;SDS011;61127;55.826;37.046;2022-10-16T08:35:58;7.25;;;3.58;;
70320;SDS011;61127;55.826;37.046;2022-10-16T08:38:24;7.50;;;2.88;;
70320;SDS011;61127;55.826;37.046;2022-10-16T08:40:49;10.57;;;3.35;;
70320;SDS011;61127;55.826;37.046;2022-10-16T08:50:57;8.63;;;2.87;;
70320;SDS011;61127;55.826;37.046;2022-10-16T08:53:27;5.53;;;2.45;;
70320;SDS011;61127;55.826;37.046;2022-10-16T08:55:55;8.98;;;2.67;;
70320;SDS011;61127;55.826;37.046;2022-10-16T08:58:29;7.43;;;2.45;;
70320;SDS011;61127;55.826;37.046;2022-10-16T09:01:00;7.40;;;2.50;;
70320;SDS011;61127;55.826;37.046;2022-10-16T09:16:54;6.70;;;2.40;;
70320;SDS011;61127;55.826;37.046;2022-10-16T09:19:30;7.25;;;2.50;;
70320;SDS011;61127;55.826;37.046;2022-10-16T09:22:00;7.03;;;2.50;;
70320;SDS011;61127;55.826;37.046;2022-10-16T09:24:28;4.10;;;2.05;;
70320;SDS011;61127;55.826;37.046;2022-10-16T09:26:54;6.70;;;2.37;;
70320;SDS011;61127;55.826;37.046;2022-10-16T09:29:20;6.97;;;2.53;;
70320;SDS011;61127;55.826;37.046;2022-10-16T09:31:47;5.50;;;2.30;;
70320;SDS011;61127;55.826;37.046;2022-10-16T09:36:49;9.35;;;2.50;;
70320;SDS011;61127;55.826;37.046;2022-10-16T09:39:15;6.63;;;2.30;;
70320;SDS011;61127;55.826;37.046;2022-10-16T09:41:43;7.22;;;2.35;;
70320;SDS011;61127;55.826;37.046;2022-10-16T09:44:29;7.07;;;2.45;;
70320;SDS011;61127;55.826;37.046;2022-10-16T09:47:10;7.55;;;2.13;;
70320;SDS011;61127;55.826;37.046;2022-10-16T09:49:38;6.03;;;2.50;;
70320;SDS011;61127;55.826;37.046;2022-10-16T09:52:13;5.85;;;2.83;;
70320;SDS011;61127;55.826;37.046;2022-10-16T09:57:35;6.37;;;2.40;;
70320;SDS011;61127;55.826;37.046;2022-10-16T10:00:04;7.38;;;2.35;;
70320;SDS011;61127;55.826;37.046;2022-10-16T10:02:34;5.75;;;2.20;;
70320;SDS011;61127;55.826;37.046;2022-10-16T10:05:01;9.10;;;3.03;;
70320;SDS011;61127;55.826;37.046;2022-10-16T10:07:42;5.75;;;2.38;;
70320;SDS011;61127;55.826;37.046;2022-10-16T10:10:22;6.88;;;2.40;;
70320;SDS011;61127;55.826;37.046;2022-10-16T10:12:55;6.57;;;2.55;;
70320;SDS011;61127;55.826;37.046;2022-10-16T10:15:32;7.32;;;2.58;;
70320;SDS011;61127;55.826;37.046;2022-10-16T10:17:59;5.13;;;2.38;;
70320;SDS011;61127;55.826;37.046;2022-10-16T10:20:28;5.97;;;2.40;;
70320;SDS011;61127;55.826;37.046;2022-10-16T10:22:54;5.32;;;2.53;;
70320;SDS011;61127;55.826;37.046;2022-10-16T10:36:00;6.32;;;2.47;;
70320;SDS011;61127;55.826;37.046;2022-10-16T10:38:38;11.32;;;2.92;;
70320;SDS011;61127;55.826;37.046;2022-10-16T10:46:29;5.68;;;2.55;;
70320;SDS011;61127;55.826;37.046;2022-10-16T10:54:36;7.03;;;2.70;;
70320;SDS011;61127;55.826;37.046;2022-10-16T10:59:49;5.93;;;2.65;;
70320;SDS011;61127;55.826;37.046;2022-10-16T11:10:16;6.70;;;2.30;;
70320;SDS011;61127;55.826;37.046;2022-10-16T11:12:48;6.15;;;2.38;;
70320;SDS011;61127;55.826;37.046;2022-10-16T11:15:21;4.97;;;2.50;;
70320;SDS011;61127;55.826;37.046;2022-10-16T11:17:54;5.05;;;2.25;;
70320;SDS011;61127;55.826;37.046;2022-10-16T11:20:24;7.80;;;2.63;;
70320;SDS011;61127;55.826;37.046;2022-10-16T11:25:24;7.60;;;2.40;;
70320;SDS011;61127;55.826;37.046;2022-10-16T11:27:54;4.85;;;2.15;;
70320;SDS011;61127;55.826;37.046;2022-10-16T11:35:44;7.13;;;2.63;;
70320;SDS011;61127;55.826;37.046;2022-10-16T11:38:34;8.23;;;2.38;;
70320;SDS011;61127;55.826;37.046;2022-10-16T11:41:08;6.30;;;2.20;;
70320;SDS011;61127;55.826;37.046;2022-10-16T11:43:38;6.45;;;2.28;;
70320;SDS011;61127;55.826;37.046;2022-10-16T11:46:10;6.75;;;2.20;;
70320;SDS011;61127;55.826;37.046;2022-10-16T11:56:18;6.93;;;2.40;;
70320;SDS011;61127;55.826;37.046;2022-10-16T11:59:19;5.85;;;2.60;;
70320;SDS011;61127;55.826;37.046;2022-10-16T12:01:41;7.68;;;2.40;;
70320;SDS011;61127;55.826;37.046;2022-10-16T12:04:33;4.30;;;2.10;;
70320;SDS011;61127;55.826;37.046;2022-10-16T12:07:09;7.13;;;2.47;;
70320;SDS011;61127;55.826;37.046;2022-10-16T12:09:38;9.55;;;2.80;;
70320;SDS011;61127;55.826;37.046;2022-10-16T12:12:04;7.22;;;2.30;;
70320;SDS011;61127;55.826;37.046;2022-10-16T12:14:35;7.13;;;2.50;;
70320;SDS011;61127;55.826;37.046;2022-10-16T12:17:22;12.53;;;2.50;;
70320;SDS011;61127;55.826;37.046;2022-10-16T12:19:58;5.65;;;2.40;;
70320;SDS011;61127;55.826;37.046;2022-10-16T12:22:26;7.60;;;2.40;;
70320;SDS011;61127;55.826;37.046;2022-10-16T12:24:54;6.43;;;2.70;;
70320;SDS011;61127;55.826;37.046;2022-10-16T12:27:30;5.00;;;2.50;;
70320;SDS011;61127;55.826;37.046;2022-10-16T12:29:57;6.33;;;2.40;;
70320;SDS011;61127;55.826;37.046;2022-10-16T12:32:31;5.53;;;2.60;;
70320;SDS011;61127;55.826;37.046;2022-10-16T12:35:21;8.88;;;2.40;;
70320;SDS011;61127;55.826;37.046;2022-10-16T12:37:47;5.07;;;2.55;;
70320;SDS011;61127;55.826;37.046;2022-10-16T12:40:15;7.57;;;2.67;;
70320;SDS011;61127;55.826;37.046;2022-10-16T12:42:56;5.28;;;2.33;;
70320;SDS011;61127;55.826;37.046;2022-10-16T12:45:32;7.65;;;2.45;;
70320;SDS011;61127;55.826;37.046;2022-10-16T12:48:04;7.05;;;2.58;;
70320;SDS011;61127;55.826;37.046;2022-10-16T12:50:34;5.13;;;2.30;;
70320;SDS011;61127;55.826;37.046;2022-10-16T12:53:21;7.57;;;2.15;;
70320;SDS011;61127;55.826;37.046;2022-10-16T13:04:44;9.23;;;3.47;;
70320;SDS011;61127;55.826;37.046;2022-10-16T13:07:19;6.60;;;2.55;;
70320;SDS011;61127;55.826;37.046;2022-10-16T13:10:15;4.90;;;2.40;;
70320;SDS011;61127;55.826;37.046;2022-10-16T13:15:38;8.27;;;2.92;;
70320;SDS011;61127;55.826;37.046;2022-10-16T13:18:15;5.20;;;2.30;;
70320;SDS011;61127;55.826;37.046;2022-10-16T13:21:09;6.03;;;2.60;;
70320;SDS011;61127;55.826;37.046;2022-10-16T13:23:59;8.35;;;2.60;;
70320;SDS011;61127;55.826;37.046;2022-10-16T13:26:57;9.27;;;2.47;;
70320;SDS011;61127;55.826;37.046;2022-10-16T13:29:39;8.32;;;2.30;;
70320;SDS011;61127;55.826;37.046;2022-10-16T13:32:09;6.43;;;2.70;;
70320;SDS011;61127;55.826;37.046;2022-10-16T13:34:44;7.72;;;2.47;;
70320;SDS011;61127;55.826;37.046;2022-10-16T13:37:16;7.45;;;2.15;;
70320;SDS011;61127;55.826;37.046;2022-10-16T13:39:50;8.48;;;2.20;;
70320;SDS011;61127;55.826;37.046;2022-10-16T13:42:24;6.47;;;2.80;;
70320;SDS011;61127;55.826;37.046;2022-10-16T13:44:57;7.40;;;2.33;;
70320;SDS011;61127;55.826;37.046;2022-10-16T13:47:29;7.05;;;2.25;;
70320;SDS011;61127;55.826;37.046;2022-10-16T13:49:59;7.60;;;2.58;;
70320;SDS011;61127;55.826;37.046;2022-10-16T13:52:31;6.68;;;2.42;;
70320;SDS011;61127;55.826;37.046;2022-10-16T13:55:04;6.70;;;2.78;;
70320;SDS011;61127;55.826;37.046;2022-10-16T13:57:42;7.20;;;2.70;;
70320;SDS011;61127;55.826;37.046;2022-10-16T14:00:23;7.43;;;4.20;;
70320;SDS011;61127;55.826;37.046;2022-10-16T14:02:58;7.47;;;2.90;;
70320;SDS011;61127;55.826;37.046;2022-10-16T14:05:27;7.55;;;2.50;;
70320;SDS011;61127;55.826;37.046;2022-10-16T14:07:56;7.57;;;2.70;;
70320;SDS011;61127;55.826;37.046;2022-10-16T14:10:29;6.30;;;2.83;;
70320;SDS011;61127;55.826;37.046;2022-10-16T14:13:01;7.40;;;2.78;;
70320;SDS011;61127;55.826;37.046;2022-10-16T14:15:37;5.88;;;2.63;;
70320;SDS011;61127;55.826;37.046;2022-10-16T14:18:13;10.05;;;2.67;;
70320;SDS011;61127;55.826;37.046;2022-10-16T14:20:44;8.23;;;2.72;;
70320;SDS011;61127;55.826;37.046;2022-10-16T14:23:28;7.27;;;2.80;;
70320;SDS011;61127;55.826;37.046;2022-10-16T14:26:20;8.23;;;2.75;;
70320;SDS011;61127;55.826;37.046;2022-10-16T14:28:48;9.88;;;3.40;;
70320;SDS011;61127;55.826;37.046;2022-10-16T14:33:53;9.57;;;3.90;;
70320;SDS011;61127;55.826;37.046;2022-10-16T14:36:27;9.33;;;3.97;;
70320;SDS011;61127;55.826;37.046;2022-10-16T14:41:57;9.45;;;3.90;;
70320;SDS011;61127;55.826;37.046;2022-10-16T14:44:30;9.82;;;4.28;;
70320;SDS011;61127;55.826;37.046;2022-10-16T14:47:09;12.05;;;4.47;;
70320;SDS011;61127;55.826;37.046;2022-10-16T14:49:44;16.00;;;4.70;;
70320;SDS011;61127;55.826;37.046;2022-10-16T14:52:14;11.50;;;4.18;;
70320;SDS011;61127;55.826;37.046;2022-10-16T14:54:42;11.07;;;4.53;;
70320;SDS011;61127;55.826;37.046;2022-10-16T14:57:18;14.07;;;5.53;;
70320;SDS011;61127;55.826;37.046;2022-10-16T14:59:44;16.90;;;6.90;;
70320;SDS011;61127;55.826;37.046;2022-10-16T15:04:39;14.20;;;6.40;;
70320;SDS011;61127;55.826;37.046;2022-10-16T15:07:06;15.02;;;7.55;;
70320;SDS011;61127;55.826;37.046;2022-10-16T15:09:32;22.60;;;8.38;;
70320;SDS011;61127;55.826;37.046;2022-10-16T15:11:58;17.17;;;7.00;;
70320;SDS011;61127;55.826;37.046;2022-10-16T15:14:24;20.70;;;7.78;;
70320;SDS011;61127;55.826;37.046;2022-10-16T15:16:50;15.63;;;7.32;;
70320;SDS011;61127;55.826;37.046;2022-10-16T15:19:19;19.70;;;8.07;;
70320;SDS011;61127;55.826;37.046;2022-10-16T15:21:45;18.30;;;7.47;;
70320;SDS011;61127;55.826;37.046;2022-10-16T15:24:33;16.25;;;6.70;;
70320;SDS011;61127;55.826;37.046;2022-10-16T15:26:58;16.20;;;7.20;;
70320;SDS011;61127;55.826;37.046;2022-10-16T15:29:24;18.47;;;8.70;;
70320;SDS011;61127;55.826;37.046;2022-10-16T15:32:09;21.08;;;8.90;;
70320;SDS011;61127;55.826;37.046;2022-10-16T15:34:35;20.75;;;9.25;;
70320;SDS011;61127;55.826;37.046;2022-10-16T15:37:04;20.42;;;9.45;;
70320;SDS011;61127;55.826;37.046;2022-10-16T15:39:30;23.67;;;10.70;;
70320;SDS011;61127;55.826;37.046;2022-10-16T15:41:56;22.40;;;11.83;;
70320;SDS011;61127;55.826;37.046;2022-10-16T15:44:21;25.75;;;12.65;;
70320;SDS011;61127;55.826;37.046;2022-10-16T15:46:55;25.30;;;12.13;;
70320;SDS011;61127;55.826;37.046;2022-10-16T15:49:22;25.73;;;12.00;;
70320;SDS011;61127;55.826;37.046;2022-10-16T15:51:48;26.90;;;12.55;;
70320;SDS011;61127;55.826;37.046;2022-10-16T15:54:47;24.65;;;12.40;;
70320;SDS011;61127;55.826;37.046;2022-10-16T15:57:19;29.67;;;11.60;;
70320;SDS011;61127;55.826;37.046;2022-10-16T15:59:52;27.47;;;10.60;;
70320;SDS011;61127;55.826;37.046;2022-10-16T16:02:18;23.08;;;10.15;;
70320;SDS011;61127;55.826;37.046;2022-10-16T16:04:44;25.80;;;9.90;;
70320;SDS011;61127;55.826;37.046;2022-10-16T16:07:10;20.63;;;10.02;;
70320;SDS011;61127;55.826;37.046;2022-10-16T16:09:40;20.43;;;9.43;;
70320;SDS011;61127;55.826;37.046;2022-10-16T16:12:16;26.67;;;9.20;;
70320;SDS011;61127;55.826;37.046;2022-10-16T16:14:54;20.52;;;8.75;;
70320;SDS011;61127;55.826;37.046;2022-10-16T16:17:31;19.52;;;8.13;;
70320;SDS011;61127;55.826;37.046;2022-10-16T16:20:19;18.60;;;8.70;;
70320;SDS011;61127;55.826;37.046;2022-10-16T16:22:45;22.10;;;8.27;;
70320;SDS011;61127;55.826;37.046;2022-10-16T16:25:12;19.25;;;8.43;;
70320;SDS011;61127;55.826;37.046;2022-10-16T16:27:38;24.30;;;9.90;;
70320;SDS011;61127;55.826;37.046;2022-10-16T16:30:04;20.17;;;8.90;;
70320;SDS011;61127;55.826;37.046;2022-10-16T16:32:30;20.48;;;9.52;;
70320;SDS011;61127;55.826;37.046;2022-10-16T16:34:59;21.38;;;11.30;;
70320;SDS011;61127;55.826;37.046;2022-10-16T16:37:25;24.80;;;11.23;;
70320;SDS011;61127;55.826;37.046;2022-10-16T16:39:51;19.88;;;10.57;;